Time;durP1;ratioP1;P1;durP2;ratioP2;P2;SDS_P1;SDS_P2;PMS_P1;PMS_P2;Temp;Humidity;BMP_temperature;BMP_pressure;BME280_temperature;BME280_humidity;BME280_pressure;Samples;Min_cycle;Max_cycle;Signal;HPM_P1;HPM_P2
2021/11/11 00:02:20;;;;;;;16.23;14.50;;;;;;;;;;5074453;28;20220;-59
2021/11/11 00:04:45;;;;;;;18.00;14.80;;;;;;;;;;5074889;28;20238;-59
2021/11/11 00:07:11;;;;;;;15.40;13.83;;;;;;;;;;5074930;28;20727;-59
2021/11/11 00:09:36;;;;;;;15.20;13.77;;;;;;;;;;5074569;28;20229;-59
2021/11/11 00:12:02;;;;;;;15.20;12.97;;;;;;;;;;5074476;28;20913;-59
2021/11/11 00:14:27;;;;;;;16.43;13.57;;;;;;;;;;5074900;28;20216;-58
2021/11/11 00:16:53;;;;;;;15.67;13.83;;;;;;;;;;5074967;28;20496;-59
2021/11/11 00:19:18;;;;;;;18.23;14.23;;;;;;;;;;5074345;28;20289;-59
2021/11/11 00:21:43;;;;;;;16.63;13.60;;;;;;;;;;5074697;28;20235;-58
2021/11/11 00:24:09;;;;;;;16.13;13.30;;;;;;;;;;5074311;28;20220;-60
2021/11/11 00:26:34;;;;;;;16.27;12.97;;;;;;;;;;5075071;28;20309;-60
2021/11/11 00:29:00;;;;;;;16.50;13.37;;;;;;;;;;5074517;28;20247;-59
2021/11/11 00:31:25;;;;;;;16.87;15.10;;;;;;;;;;5074518;28;20216;-60
2021/11/11 00:33:51;;;;;;;13.53;12.13;;;;;;;;;;5074525;28;20510;-60
2021/11/11 00:36:17;;;;;;;16.40;13.90;;;;;;;;;;5074736;28;20216;-59
2021/11/11 00:38:43;;;;;;;15.50;12.90;;;;;;;;;;5074705;28;20491;-59
2021/11/11 00:41:10;;;;;;;13.83;12.20;;;;;;;;;;5074282;28;20270;-59
2021/11/11 00:43:36;;;;;;;16.37;13.43;;;;;;;;;;5074688;28;20458;-60
2021/11/11 00:46:01;;;;;;;14.90;12.60;;;;;;;;;;5074573;28;20814;-59
2021/11/11 00:48:27;;;;;;;17.83;13.13;;;;;;;;;;5074106;28;20417;-59
2021/11/11 00:50:53;;;;;;;15.23;13.67;;;;;;;;;;5075210;28;20213;-59
2021/11/11 00:53:18;;;;;;;16.73;13.03;;;;;;;;;;5078538;28;20231;-59
2021/11/11 00:55:44;;;;;;;15.40;13.80;;;;;;;;;;5078840;28;20429;-60
2021/11/11 00:58:09;;;;;;;14.77;13.27;;;;;;;;;;5077381;28;20299;-59
2021/11/11 01:00:37;;;;;;;16.43;12.63;;;;;;;;;;5077693;28;20227;-59
2021/11/11 01:03:04;;;;;;;15.17;13.30;;;;;;;;;;5078784;28;20244;-59
2021/11/11 01:05:30;;;;;;;14.17;12.57;;;;;;;;;;5078407;28;20442;-59
2021/11/11 01:07:55;;;;;;;16.70;12.63;;;;;;;;;;5078713;28;20985;-59
2021/11/11 01:10:20;;;;;;;15.73;14.07;;;;;;;;;;5077725;28;20228;-59
2021/11/11 01:12:47;;;;;;;17.20;14.03;;;;;;;;;;5077616;28;20209;-59
2021/11/11 01:15:16;;;;;;;15.70;13.87;;;;;;;;;;5077904;28;20257;-60
2021/11/11 01:17:42;;;;;;;23.40;15.53;;;;;;;;;;5078254;28;20436;-59
2021/11/11 01:20:09;;;;;;;18.50;14.60;;;;;;;;;;5078066;28;20469;-58
2021/11/11 01:22:35;;;;;;;15.43;13.83;;;;;;;;;;5078124;28;20455;-59
2021/11/11 01:25:01;;;;;;;17.63;13.93;;;;;;;;;;5078000;28;20758;-59
2021/11/11 01:27:26;;;;;;;16.20;14.40;;;;;;;;;;5077585;28;20425;-60
2021/11/11 01:29:52;;;;;;;18.10;14.83;;;;;;;;;;5077837;28;20516;-59
2021/11/11 01:32:17;;;;;;;15.83;14.30;;;;;;;;;;5077463;28;20224;-60
2021/11/11 01:34:42;;;;;;;18.00;15.50;;;;;;;;;;5077616;28;20220;-59
2021/11/11 01:37:07;;;;;;;19.80;16.83;;;;;;;;;;5078097;28;20212;-59
2021/11/11 01:39:33;;;;;;;16.47;14.77;;;;;;;;;;5077706;28;20219;-59
2021/11/11 01:41:58;;;;;;;16.87;14.10;;;;;;;;;;5078140;28;20217;-60
2021/11/11 01:44:23;;;;;;;19.20;16.30;;;;;;;;;;5077767;28;20536;-59
2021/11/11 01:46:49;;;;;;;18.20;15.63;;;;;;;;;;5077277;28;20219;-59
2021/11/11 01:49:15;;;;;;;19.20;14.37;;;;;;;;;;5077703;28;20216;-59
2021/11/11 01:51:41;;;;;;;16.53;14.20;;;;;;;;;;5077543;28;20231;-59
2021/11/11 01:54:07;;;;;;;20.73;16.40;;;;;;;;;;5077418;28;20231;-58
2021/11/11 01:56:33;;;;;;;16.70;14.90;;;;;;;;;;5077299;28;20441;-59
2021/11/11 01:58:58;;;;;;;16.10;13.70;;;;;;;;;;5077489;28;20442;-59
2021/11/11 02:01:24;;;;;;;15.87;14.23;;;;;;;;;;5077110;28;20473;-58
2021/11/11 02:03:52;;;;;;;15.90;14.33;;;;;;;;;;5077496;28;20299;-59
2021/11/11 02:06:17;;;;;;;14.50;12.57;;;;;;;;;;5077249;28;20220;-59
2021/11/11 02:08:43;;;;;;;17.30;14.60;;;;;;;;;;5077449;28;20811;-59
2021/11/11 02:11:08;;;;;;;16.90;14.83;;;;;;;;;;5077229;28;20239;-59
2021/11/11 02:13:34;;;;;;;15.07;13.47;;;;;;;;;;5076987;28;20212;-58
2021/11/11 02:15:59;;;;;;;18.30;14.27;;;;;;;;;;5077547;28;20227;-59
2021/11/11 02:18:24;;;;;;;16.10;14.27;;;;;;;;;;5076905;28;20599;-60
2021/11/11 02:20:50;;;;;;;18.00;15.13;;;;;;;;;;5077889;28;20214;-59
2021/11/11 02:23:17;;;;;;;15.83;14.10;;;;;;;;;;5077144;28;20668;-59
2021/11/11 02:25:43;;;;;;;17.93;14.00;;;;;;;;;;5077132;28;20212;-59
2021/11/11 02:28:13;;;;;;;16.60;13.60;;;;;;;;;;5077583;28;20830;-59
2021/11/11 02:30:41;;;;;;;16.30;14.70;;;;;;;;;;5077373;28;20937;-58
2021/11/11 02:33:10;;;;;;;16.90;14.00;;;;;;;;;;5077397;28;20459;-59
2021/11/11 02:35:36;;;;;;;15.97;14.30;;;;;;;;;;5077032;28;20614;-59
2021/11/11 02:38:02;;;;;;;15.10;13.60;;;;;;;;;;5076937;28;20450;-60
2021/11/11 02:40:28;;;;;;;15.83;14.13;;;;;;;;;;5076540;28;20450;-59
2021/11/11 02:42:54;;;;;;;16.47;13.30;;;;;;;;;;5076802;28;20693;-58
2021/11/11 02:45:24;;;;;;;16.27;13.97;;;;;;;;;;5077329;28;20213;-58
2021/11/11 02:47:51;;;;;;;15.70;14.00;;;;;;;;;;5077115;28;20749;-58
2021/11/11 02:50:16;;;;;;;16.47;14.80;;;;;;;;;;5076587;28;20428;-59
2021/11/11 02:52:43;;;;;;;14.70;13.10;;;;;;;;;;5076869;28;20520;-59
2021/11/11 02:55:09;;;;;;;17.27;15.20;;;;;;;;;;5077038;28;20221;-59
2021/11/11 02:57:36;;;;;;;18.30;14.63;;;;;;;;;;5075904;28;20701;-59
2021/11/11 03:00:06;;;;;;;17.20;15.40;;;;;;;;;;5076673;28;20522;-59
2021/11/11 03:02:33;;;;;;;15.77;13.57;;;;;;;;;;5075992;28;20429;-59
2021/11/11 03:05:00;;;;;;;16.23;13.93;;;;;;;;;;5076779;28;20917;-59
2021/11/11 03:07:25;;;;;;;14.60;13.20;;;;;;;;;;5076221;28;20993;-59
2021/11/11 03:09:51;;;;;;;17.73;14.53;;;;;;;;;;5076661;28;20448;-59
2021/11/11 03:12:17;;;;;;;15.83;14.10;;;;;;;;;;5076297;28;20220;-60
2021/11/11 03:14:44;;;;;;;17.00;13.27;;;;;;;;;;5075951;28;20480;-59
2021/11/11 03:17:11;;;;;;;17.67;13.80;;;;;;;;;;5076848;28;20459;-59
2021/11/11 03:19:37;;;;;;;16.17;12.80;;;;;;;;;;5076151;28;20426;-58
2021/11/11 03:22:03;;;;;;;13.20;11.80;;;;;;;;;;5076550;28;20812;-58
2021/11/11 03:24:29;;;;;;;17.00;15.10;;;;;;;;;;5074873;28;20547;-58
2021/11/11 03:26:54;;;;;;;16.87;13.80;;;;;;;;;;5076324;28;20460;-59
2021/11/11 03:29:19;;;;;;;17.30;13.70;;;;;;;;;;5075827;28;20213;-60
2021/11/11 03:31:45;;;;;;;15.30;13.80;;;;;;;;;;5076244;28;20219;-59
2021/11/11 03:34:10;;;;;;;16.23;12.90;;;;;;;;;;5076455;28;20222;-59
2021/11/11 03:36:35;;;;;;;17.97;14.03;;;;;;;;;;5075597;28;20231;-58
2021/11/11 03:39:01;;;;;;;14.37;13.03;;;;;;;;;;5076236;28;20250;-58
2021/11/11 03:41:26;;;;;;;18.63;13.73;;;;;;;;;;5075611;28;20223;-59
2021/11/11 03:43:51;;;;;;;15.10;13.00;;;;;;;;;;5076441;28;20214;-59
2021/11/11 03:46:17;;;;;;;18.07;13.93;;;;;;;;;;5076203;28;20324;-59
2021/11/11 03:48:42;;;;;;;16.53;14.40;;;;;;;;;;5075738;28;20213;-59
2021/11/11 03:51:08;;;;;;;14.93;13.47;;;;;;;;;;5076208;28;20357;-58
2021/11/11 03:53:33;;;;;;;15.40;13.80;;;;;;;;;;5075541;28;20280;-59
2021/11/11 03:55:59;;;;;;;17.40;14.30;;;;;;;;;;5075805;28;20235;-59
2021/11/11 03:58:24;;;;;;;16.70;14.40;;;;;;;;;;5075672;28;20223;-59
2021/11/11 04:00:49;;;;;;;15.20;13.60;;;;;;;;;;5075582;28;20216;-59
2021/11/11 04:03:15;;;;;;;16.53;13.40;;;;;;;;;;5075898;28;20216;-59
2021/11/11 04:05:40;;;;;;;15.13;13.43;;;;;;;;;;5075518;28;20518;-58
2021/11/11 04:08:05;;;;;;;14.67;13.17;;;;;;;;;;5076194;28;20286;-58
2021/11/11 04:10:31;;;;;;;16.97;13.27;;;;;;;;;;5075181;28;20235;-58
2021/11/11 04:12:59;;;;;;;14.60;13.10;;;;;;;;;;5075796;28;20614;-59
2021/11/11 04:15:25;;;;;;;18.33;13.63;;;;;;;;;;5074575;28;20465;-59
2021/11/11 04:17:50;;;;;;;16.50;13.47;;;;;;;;;;5075703;28;20723;-59
2021/11/11 04:20:15;;;;;;;17.00;12.53;;;;;;;;;;5076002;28;20268;-59
2021/11/11 04:22:41;;;;;;;15.70;14.10;;;;;;;;;;5075356;28;20223;-59
2021/11/11 04:25:07;;;;;;;14.87;13.37;;;;;;;;;;5076465;28;20214;-59
2021/11/11 04:27:37;;;;;;;15.80;13.17;;;;;;;;;;5078795;28;20235;-59
2021/11/11 04:32:41;;;;;;;15.93;13.17;;;;;;;;;;5079568;28;25053;-59
2021/11/11 04:35:07;;;;;;;17.47;12.87;;;;;;;;;;5079914;28;20517;-59
2021/11/11 04:40:35;;;;;;;16.57;13.40;;;;;;;;;;5079630;28;20436;-59
2021/11/11 04:48:36;;;;;;;15.27;13.67;;;;;;;;;;5063875;28;20524;-60
2021/11/11 05:04:09;;;;;;;14.77;12.67;;;;;;;;;;5073318;28;20915;-59
2021/11/11 05:06:35;;;;;;;16.93;13.13;;;;;;;;;;5069339;28;20488;-59
2021/11/11 05:09:00;;;;;;;16.80;14.60;;;;;;;;;;5064560;28;20226;-59
2021/11/11 05:11:25;;;;;;;17.77;13.67;;;;;;;;;;5071161;28;20233;-58
2021/11/11 05:13:52;;;;;;;17.23;15.43;;;;;;;;;;5072103;28;20254;-58
2021/11/11 05:16:18;;;;;;;17.53;14.70;;;;;;;;;;5066907;28;20649;-58
2021/11/11 05:18:43;;;;;;;16.67;13.30;;;;;;;;;;5065213;28;20468;-58
2021/11/11 05:21:08;;;;;;;15.77;13.50;;;;;;;;;;5071583;28;20273;-59
2021/11/11 05:23:33;;;;;;;20.13;15.47;;;;;;;;;;5072451;28;20670;-59
2021/11/11 05:25:59;;;;;;;14.90;12.83;;;;;;;;;;5065069;28;20230;-60
2021/11/11 05:28:24;;;;;;;16.00;13.83;;;;;;;;;;5065681;28;20265;-59
2021/11/11 05:30:51;;;;;;;15.17;13.13;;;;;;;;;;5071765;28;20240;-59
2021/11/11 05:33:16;;;;;;;16.40;13.60;;;;;;;;;;5072207;28;20216;-59
2021/11/11 05:35:41;;;;;;;16.83;14.90;;;;;;;;;;5066318;28;20815;-60
2021/11/11 05:38:07;;;;;;;15.00;12.97;;;;;;;;;;5064738;28;20227;-59
2021/11/11 05:40:33;;;;;;;15.27;13.67;;;;;;;;;;5071560;28;20225;-60
2021/11/11 05:42:58;;;;;;;16.43;14.17;;;;;;;;;;5071882;28;20238;-59
2021/11/11 05:45:23;;;;;;;14.87;13.13;;;;;;;;;;5052297;28;20226;-59
2021/11/11 05:47:49;;;;;;;13.50;12.17;;;;;;;;;;5069992;28;20230;-60
2021/11/11 05:50:16;;;;;;;15.50;13.73;;;;;;;;;;5072156;28;20234;-59
2021/11/11 05:52:42;;;;;;;16.23;14.50;;;;;;;;;;5066231;28;20275;-59
2021/11/11 05:55:08;;;;;;;20.10;15.43;;;;;;;;;;5064323;28;20536;-59
2021/11/11 05:57:33;;;;;;;16.00;14.40;;;;;;;;;;5069773;28;20273;-59
2021/11/11 05:59:59;;;;;;;16.00;13.50;;;;;;;;;;5071323;28;20713;-58
2021/11/11 06:02:24;;;;;;;15.83;13.63;;;;;;;;;;5065379;28;20214;-59
2021/11/11 06:04:49;;;;;;;16.20;14.60;;;;;;;;;;5064106;28;20254;-59
2021/11/11 06:07:15;;;;;;;16.80;14.13;;;;;;;;;;5071468;28;20245;-59
2021/11/11 06:09:40;;;;;;;18.03;14.10;;;;;;;;;;5071416;28;20525;-59
2021/11/11 06:12:06;;;;;;;14.57;13.03;;;;;;;;;;5064603;28;20357;-59
2021/11/11 06:14:31;;;;;;;18.60;15.17;;;;;;;;;;5064514;28;20232;-59
2021/11/11 06:16:58;;;;;;;16.10;13.93;;;;;;;;;;5071055;28;20451;-58
2021/11/11 06:19:23;;;;;;;16.80;13.57;;;;;;;;;;5061239;28;20224;-59
2021/11/11 06:21:49;;;;;;;16.80;13.00;;;;;;;;;;5071139;28;20481;-59
2021/11/11 06:24:15;;;;;;;18.40;15.37;;;;;;;;;;5070361;28;20227;-59
2021/11/11 06:26:41;;;;;;;16.40;13.93;;;;;;;;;;5063859;28;20441;-60
2021/11/11 06:29:07;;;;;;;19.13;13.63;;;;;;;;;;5063206;28;20257;-58
2021/11/11 06:31:32;;;;;;;17.20;14.57;;;;;;;;;;5070415;28;20458;-59
2021/11/11 06:33:58;;;;;;;15.50;13.90;;;;;;;;;;5069891;28;20443;-59
2021/11/11 06:36:23;;;;;;;15.10;13.50;;;;;;;;;;5063663;28;20230;-59
2021/11/11 06:38:48;;;;;;;16.97;15.17;;;;;;;;;;5064950;28;20234;-59
2021/11/11 06:41:13;;;;;;;17.47;14.63;;;;;;;;;;5070338;28;20615;-59
2021/11/11 06:43:39;;;;;;;18.23;14.73;;;;;;;;;;5069742;28;20230;-59
2021/11/11 06:46:05;;;;;;;15.80;13.57;;;;;;;;;;5057603;28;20223;-58
2021/11/11 06:48:31;;;;;;;15.73;14.03;;;;;;;;;;5069266;28;20218;-60
2021/11/11 06:50:56;;;;;;;15.53;13.93;;;;;;;;;;5063101;28;20927;-59
2021/11/11 06:53:21;;;;;;;18.03;14.43;;;;;;;;;;5074988;28;20234;-59
2021/11/11 06:55:47;;;;;;;20.50;14.67;;;;;;;;;;5062105;28;20216;-59
2021/11/11 06:58:19;;;;;;;15.77;14.07;;;;;;;;;;5064338;28;20232;-60
2021/11/11 07:00:44;;;;;;;16.43;13.80;;;;;;;;;;5050735;28;20343;-58
2021/11/11 07:03:10;;;;;;;18.23;14.53;;;;;;;;;;5062948;28;20533;-59
2021/11/11 07:05:35;;;;;;;16.30;13.63;;;;;;;;;;5070562;28;20233;-59
2021/11/11 07:08:03;;;;;;;15.63;13.53;;;;;;;;;;5069509;28;20219;-60
2021/11/11 07:10:36;;;;;;;17.13;14.40;;;;;;;;;;5058916;28;20584;-59
2021/11/11 07:13:02;;;;;;;19.17;13.47;;;;;;;;;;5033314;28;20533;-58
2021/11/11 07:15:27;;;;;;;17.97;15.00;;;;;;;;;;5034022;28;20467;-59
2021/11/11 07:17:52;;;;;;;17.67;14.53;;;;;;;;;;5033846;28;20313;-59
2021/11/11 07:20:18;;;;;;;19.47;15.23;;;;;;;;;;5033039;28;20255;-59
2021/11/11 07:22:45;;;;;;;17.10;14.83;;;;;;;;;;5032233;28;20254;-59
2021/11/11 07:25:11;;;;;;;17.43;15.63;;;;;;;;;;5033066;28;20290;-59
2021/11/11 07:27:37;;;;;;;19.93;16.47;;;;;;;;;;5033361;28;20779;-59
2021/11/11 07:30:08;;;;;;;20.60;17.87;;;;;;;;;;5032466;28;20482;-60
2021/11/11 07:32:34;;;;;;;21.90;15.70;;;;;;;;;;5065289;28;20232;-59
2021/11/11 07:34:59;;;;;;;21.40;16.57;;;;;;;;;;5058177;28;20474;-60
2021/11/11 07:37:24;;;;;;;25.23;18.30;;;;;;;;;;5061384;28;20317;-59
2021/11/11 07:39:53;;;;;;;24.43;17.90;;;;;;;;;;5066347;28;20351;-60
2021/11/11 07:42:20;;;;;;;20.53;16.70;;;;;;;;;;5065942;28;20301;-59
2021/11/11 07:44:46;;;;;;;22.80;17.97;;;;;;;;;;5059672;28;20431;-58
2021/11/11 07:47:11;;;;;;;22.30;17.67;;;;;;;;;;5065585;28;20546;-59
2021/11/11 07:49:36;;;;;;;23.03;17.80;;;;;;;;;;5059706;28;20482;-59
2021/11/11 07:52:02;;;;;;;23.83;17.83;;;;;;;;;;5061877;28;20318;-60
2021/11/11 07:54:27;;;;;;;24.53;17.70;;;;;;;;;;5059137;28;20218;-59
2021/11/11 07:56:52;;;;;;;25.30;18.87;;;;;;;;;;5061938;28;20368;-59
2021/11/11 07:59:18;;;;;;;23.23;19.30;;;;;;;;;;5066161;28;20229;-60
2021/11/11 08:01:43;;;;;;;23.30;18.90;;;;;;;;;;5064384;28;20312;-60
2021/11/11 08:04:08;;;;;;;25.57;19.70;;;;;;;;;;5059405;28;20235;-60
2021/11/11 08:06:34;;;;;;;30.67;20.50;;;;;;;;;;5063398;28;20229;-59
2021/11/11 08:08:59;;;;;;;21.67;17.60;;;;;;;;;;5066201;28;20309;-60
2021/11/11 08:11:24;;;;;;;29.27;17.30;;;;;;;;;;5056439;28;20564;-59
2021/11/11 08:13:50;;;;;;;23.90;17.97;;;;;;;;;;5062441;28;20248;-60
2021/11/11 08:16:16;;;;;;;21.43;17.10;;;;;;;;;;5066140;28;20301;-60
2021/11/11 08:18:41;;;;;;;21.80;17.23;;;;;;;;;;5063935;28;20736;-60
2021/11/11 08:21:06;;;;;;;24.70;18.67;;;;;;;;;;5049076;28;20568;-59
2021/11/11 08:23:32;;;;;;;24.33;18.80;;;;;;;;;;5049750;28;20222;-60
2021/11/11 08:26:03;;;;;;;25.10;17.50;;;;;;;;;;5053919;28;20233;-59
2021/11/11 08:28:28;;;;;;;23.63;17.90;;;;;;;;;;5049808;28;20808;-59
2021/11/11 08:30:53;;;;;;;27.63;18.87;;;;;;;;;;5044688;28;20521;-59
2021/11/11 08:33:19;;;;;;;23.23;18.23;;;;;;;;;;5051504;28;20213;-59
2021/11/11 08:35:44;;;;;;;27.63;18.30;;;;;;;;;;5053025;28;20297;-59
2021/11/11 08:38:10;;;;;;;24.80;18.27;;;;;;;;;;5046121;28;20221;-58
2021/11/11 08:40:36;;;;;;;27.97;19.80;;;;;;;;;;5046142;28;20233;-59
2021/11/11 08:43:01;;;;;;;27.53;18.20;;;;;;;;;;5053558;28;20432;-59
2021/11/11 08:45:28;;;;;;;27.70;18.00;;;;;;;;;;5051269;28;20544;-59
2021/11/11 08:47:54;;;;;;;27.77;19.63;;;;;;;;;;5032653;28;20295;-60
2021/11/11 08:50:20;;;;;;;22.23;19.10;;;;;;;;;;5045710;28;20561;-60
2021/11/11 08:52:49;;;;;;;25.87;18.73;;;;;;;;;;5032506;28;20496;-60
2021/11/11 08:55:18;;;;;;;30.83;21.97;;;;;;;;;;5045610;28;20435;-59
2021/11/11 08:57:44;;;;;;;29.80;22.57;;;;;;;;;;5052166;28;20474;-60
2021/11/11 09:00:16;;;;;;;30.40;24.57;;;;;;;;;;5052421;28;20460;-60
2021/11/11 09:02:42;;;;;;;25.93;22.23;;;;;;;;;;5033427;28;20239;-59
2021/11/11 09:05:08;;;;;;;29.60;20.50;;;;;;;;;;5044830;28;20540;-59
2021/11/11 09:07:38;;;;;;;29.37;22.77;;;;;;;;;;5051986;28;20925;-59
2021/11/11 09:10:05;;;;;;;29.20;21.50;;;;;;;;;;5046667;28;20453;-59
2021/11/11 09:12:30;;;;;;;29.13;23.13;;;;;;;;;;5051046;28;20917;-59
2021/11/11 09:14:55;;;;;;;29.93;23.03;;;;;;;;;;5044862;28;20539;-60
2021/11/11 09:17:21;;;;;;;25.90;21.50;;;;;;;;;;5047728;28;20225;-59
2021/11/11 09:19:46;;;;;;;30.47;21.43;;;;;;;;;;5051824;28;20298;-59
2021/11/11 09:22:11;;;;;;;31.20;22.73;;;;;;;;;;5047928;28;20564;-61
2021/11/11 09:24:38;;;;;;;29.03;22.23;;;;;;;;;;5045588;28;20228;-59
2021/11/11 09:27:03;;;;;;;28.90;23.10;;;;;;;;;;5052075;28;20718;-60
2021/11/11 09:29:29;;;;;;;25.40;20.47;;;;;;;;;;5051843;28;20468;-59
2021/11/11 09:31:54;;;;;;;26.87;22.83;;;;;;;;;;5045838;28;20282;-59
2021/11/11 09:34:19;;;;;;;30.53;22.20;;;;;;;;;;5045168;28;20244;-60
2021/11/11 09:36:45;;;;;;;25.47;20.37;;;;;;;;;;5052317;28;20281;-60
2021/11/11 09:39:10;;;;;;;27.63;23.03;;;;;;;;;;5051238;28;20217;-59
2021/11/11 09:41:39;;;;;;;28.30;21.27;;;;;;;;;;5045385;28;20222;-59
2021/11/11 09:44:04;;;;;;;29.47;23.03;;;;;;;;;;5044686;28;20220;-59
2021/11/11 09:46:29;;;;;;;35.90;26.53;;;;;;;;;;5054771;28;20451;-60
2021/11/11 09:48:55;;;;;;;31.10;24.33;;;;;;;;;;5046051;28;20670;-59
2021/11/11 09:51:23;;;;;;;23.53;18.43;;;;;;;;;;5051559;28;20243;-59
2021/11/11 09:54:03;;;;;;;30.00;21.80;;;;;;;;;;5040809;28;20218;-59
2021/11/11 09:59:12;;;;;;;29.80;19.20;;;;;;;;;;5044649;28;20491;-60
2021/11/11 10:01:38;;;;;;;26.93;18.30;;;;;;;;;;5047433;28;20467;-58
2021/11/11 10:04:03;;;;;;;34.20;21.07;;;;;;;;;;5051770;28;20220;-60
2021/11/11 10:06:30;;;;;;;33.60;20.87;;;;;;;;;;5047545;28;20225;-60
2021/11/11 10:08:58;;;;;;;26.33;19.20;;;;;;;;;;5044137;28;20234;-59
2021/11/11 10:11:35;;;;;;;26.73;18.97;;;;;;;;;;5042191;28;20564;-59
2021/11/11 10:14:08;;;;;;;29.50;20.10;;;;;;;;;;5047239;28;20461;-60
2021/11/11 10:16:42;;;;;;;24.07;17.47;;;;;;;;;;5050951;28;20468;-59
2021/11/11 10:19:07;;;;;;;19.10;14.30;;;;;;;;;;5050360;28;20808;-59
2021/11/11 10:21:42;;;;;;;17.23;12.10;;;;;;;;;;5043858;28;20474;-59
2021/11/11 10:24:25;;;;;;;19.93;12.83;;;;;;;;;;5044425;28;20222;-58
2021/11/11 10:26:54;;;;;;;19.10;14.67;;;;;;;;;;5047011;28;20452;-59
2021/11/11 10:29:22;;;;;;;19.97;12.50;;;;;;;;;;5051435;28;20520;-58
2021/11/11 10:31:55;;;;;;;18.77;14.53;;;;;;;;;;5047926;28;20435;-59
2021/11/11 10:34:21;;;;;;;23.53;14.97;;;;;;;;;;5043813;28;20863;-59
2021/11/11 10:36:52;;;;;;;22.77;15.77;;;;;;;;;;5046680;28;20439;-60
2021/11/11 10:39:28;;;;;;;25.17;17.23;;;;;;;;;;5050962;28;20285;-59
2021/11/11 10:41:56;;;;;;;26.93;15.50;;;;;;;;;;5049845;28;20430;-60
2021/11/11 10:44:25;;;;;;;24.47;16.93;;;;;;;;;;5042899;28;20887;-59
2021/11/11 10:46:57;;;;;;;24.10;16.80;;;;;;;;;;5043248;28;20443;-61
2021/11/11 10:49:42;;;;;;;21.63;14.87;;;;;;;;;;5049637;28;20526;-59
2021/11/11 10:52:26;;;;;;;24.67;17.43;;;;;;;;;;5051180;28;20437;-59
2021/11/11 10:55:03;;;;;;;19.10;15.30;;;;;;;;;;5044802;28;20521;-59
2021/11/11 10:57:53;;;;;;;25.87;16.70;;;;;;;;;;5030499;28;20421;-59
2021/11/11 11:00:25;;;;;;;25.13;18.30;;;;;;;;;;5042856;28;20446;-60
2021/11/11 11:02:53;;;;;;;24.50;16.33;;;;;;;;;;5046582;28;20435;-59
2021/11/11 11:05:22;;;;;;;23.73;17.37;;;;;;;;;;5049355;28;20456;-60
2021/11/11 11:07:49;;;;;;;29.87;18.57;;;;;;;;;;5046802;28;20784;-60
2021/11/11 11:10:17;;;;;;;22.33;17.60;;;;;;;;;;5036858;28;20776;-59
2021/11/11 11:12:43;;;;;;;23.10;16.87;;;;;;;;;;5049968;28;20556;-59
2021/11/11 11:15:09;;;;;;;23.77;19.10;;;;;;;;;;5043684;28;20445;-60
2021/11/11 11:17:34;;;;;;;23.83;18.03;;;;;;;;;;5043296;28;20434;-59
2021/11/11 11:20:20;;;;;;;23.87;19.13;;;;;;;;;;5049459;28;20278;-59
2021/11/11 11:22:46;;;;;;;27.03;18.60;;;;;;;;;;5050532;28;20220;-60
2021/11/11 11:25:11;;;;;;;21.40;16.87;;;;;;;;;;5046772;28;20791;-59
2021/11/11 11:27:36;;;;;;;24.67;19.07;;;;;;;;;;5043435;28;20563;-59
2021/11/11 11:30:14;;;;;;;22.30;17.20;;;;;;;;;;5046850;28;20227;-59
2021/11/11 11:32:43;;;;;;;22.87;18.30;;;;;;;;;;5050681;28;20228;-60
2021/11/11 11:35:10;;;;;;;22.70;16.70;;;;;;;;;;5047614;28;20464;-60
2021/11/11 11:37:36;;;;;;;21.43;17.50;;;;;;;;;;5042986;28;20467;-59
2021/11/11 11:40:09;;;;;;;24.07;17.40;;;;;;;;;;5045129;28;20468;-59
2021/11/11 11:42:42;;;;;;;22.00;18.57;;;;;;;;;;5050462;28;20280;-59
2021/11/11 11:45:15;;;;;;;28.80;21.10;;;;;;;;;;5049556;28;20424;-58
2021/11/11 11:47:49;;;;;;;25.43;19.13;;;;;;;;;;5044758;28;20460;-60
2021/11/11 11:50:24;;;;;;;25.33;19.40;;;;;;;;;;5043079;28;20521;-59
2021/11/11 11:52:57;;;;;;;24.80;19.83;;;;;;;;;;5053986;28;20429;-64
2021/11/11 11:55:28;;;;;;;24.67;20.47;;;;;;;;;;5043876;28;20430;-62
2021/11/11 11:58:05;;;;;;;22.80;19.17;;;;;;;;;;5049213;28;20511;-60
2021/11/11 12:00:56;;;;;;;25.60;18.27;;;;;;;;;;5053062;28;20484;-62
2021/11/11 12:09:00;;;;;;;25.67;19.60;;;;;;;;;;5046308;28;20470;-61
2021/11/11 12:11:53;;;;;;;24.27;20.30;;;;;;;;;;5045914;28;20926;-63
2021/11/11 12:14:38;;;;;;;23.40;19.43;;;;;;;;;;5046094;28;20459;-62
2021/11/11 12:40:03;;;;;;;19.50;15.97;;;;;;;;;;5037024;28;21015;-60
2021/11/11 12:42:33;;;;;;;22.43;17.77;;;;;;;;;;5045661;28;20954;-60
2021/11/11 12:45:07;;;;;;;21.80;16.53;;;;;;;;;;5046683;28;20439;-60
2021/11/11 12:47:42;;;;;;;24.40;19.37;;;;;;;;;;5046337;28;20536;-59
2021/11/11 12:50:27;;;;;;;26.20;20.77;;;;;;;;;;5044215;28;20423;-60
2021/11/11 12:55:41;;;;;;;29.00;19.40;;;;;;;;;;5044977;28;20949;-60
2021/11/11 12:58:08;;;;;;;24.03;18.20;;;;;;;;;;5044748;28;20456;-60
2021/11/11 13:00:37;;;;;;;30.17;23.27;;;;;;;;;;5051674;28;20847;-59
2021/11/11 13:03:04;;;;;;;28.33;20.67;;;;;;;;;;5051144;28;20563;-60
2021/11/11 13:05:44;;;;;;;54.27;47.43;;;;;;;;;;5029792;28;20985;-66
2021/11/11 13:08:11;;;;;;;43.33;37.57;;;;;;;;;;5040958;28;20446;-67
2021/11/11 13:10:59;;;;;;;26.83;19.97;;;;;;;;;;5047940;28;20500;-59
2021/11/11 13:13:26;;;;;;;22.07;17.30;;;;;;;;;;5051439;28;20479;-61
2021/11/11 13:16:01;;;;;;;23.33;18.10;;;;;;;;;;5036807;28;20880;-60
2021/11/11 13:18:45;;;;;;;24.30;20.20;;;;;;;;;;5038081;28;20477;-59
2021/11/11 13:21:25;;;;;;;21.63;17.70;;;;;;;;;;5037867;28;20927;-59
2021/11/11 13:27:49;;;;;;;28.10;18.27;;;;;;;;;;5035841;28;20615;-59
2021/11/11 14:01:21;;;;;;;20.73;16.77;;;;;;;;;;5036137;28;20483;-60
2021/11/11 14:04:13;;;;;;;22.73;17.37;;;;;;;;;;5036878;28;20473;-58
2021/11/11 15:19:16;;;;;;;16.97;12.53;;;;;;;;;;5036468;28;20950;-60
2021/11/11 15:57:09;;;;;;;17.50;12.70;;;;;;;;;;5040105;28;20493;-59
2021/11/11 16:01:50;;;;;;;17.27;13.80;;;;;;;;;;5039928;28;20479;-59
2021/11/11 16:20:47;;;;;;;17.63;13.03;;;;;;;;;;5039461;28;20483;-60
2021/11/11 16:24:23;;;;;;;16.17;11.97;;;;;;;;;;5039565;28;20429;-60
2021/11/11 16:26:17;;;;;;;19.73;13.20;;;;;;;;;;5038578;28;20430;-59
2021/11/11 16:28:46;;;;;;;16.93;12.77;;;;;;;;;;5039484;28;20457;-59
2021/11/11 16:31:14;;;;;;;16.20;11.50;;;;;;;;;;5039706;28;20426;-60
2021/11/11 16:33:39;;;;;;;15.20;12.30;;;;;;;;;;5038868;28;20419;-60
2021/11/11 16:36:05;;;;;;;15.07;12.47;;;;;;;;;;5038406;28;20563;-60
2021/11/11 16:38:31;;;;;;;16.40;13.10;;;;;;;;;;5039475;28;20217;-60
2021/11/11 16:40:56;;;;;;;17.03;14.50;;;;;;;;;;5039417;28;20449;-59
2021/11/11 16:43:21;;;;;;;24.90;15.30;;;;;;;;;;5039601;28;20264;-60
2021/11/11 16:45:47;;;;;;;17.00;13.50;;;;;;;;;;5038662;28;20306;-59
2021/11/11 16:48:12;;;;;;;17.30;13.63;;;;;;;;;;5039692;28;20225;-60
2021/11/11 16:50:38;;;;;;;19.47;15.90;;;;;;;;;;5038860;28;20569;-60
2021/11/11 16:53:04;;;;;;;18.90;14.37;;;;;;;;;;5039256;28;20301;-59
2021/11/11 16:55:30;;;;;;;17.37;14.13;;;;;;;;;;5038498;28;20427;-60
2021/11/11 16:57:56;;;;;;;19.00;14.90;;;;;;;;;;5038959;28;21007;-59
2021/11/11 17:00:22;;;;;;;20.33;14.77;;;;;;;;;;5038787;28;20238;-59
2021/11/11 17:02:48;;;;;;;19.50;15.10;;;;;;;;;;5039134;28;20469;-60
2021/11/11 17:05:13;;;;;;;21.07;15.70;;;;;;;;;;5039201;28;20529;-59
2021/11/11 17:07:39;;;;;;;16.80;14.87;;;;;;;;;;5038495;28;20303;-59
2021/11/11 17:10:05;;;;;;;22.03;14.67;;;;;;;;;;5038309;28;20247;-60
2021/11/11 17:12:30;;;;;;;20.10;13.67;;;;;;;;;;5038509;28;20222;-59
2021/11/11 17:14:59;;;;;;;18.43;14.40;;;;;;;;;;5038766;28;20427;-59
2021/11/11 17:17:24;;;;;;;20.00;14.90;;;;;;;;;;5038583;28;20249;-59
2021/11/11 17:19:54;;;;;;;15.93;12.87;;;;;;;;;;5037894;28;20463;-58
2021/11/11 17:22:28;;;;;;;17.20;13.27;;;;;;;;;;5037925;28;20210;-59
2021/11/11 17:24:53;;;;;;;15.07;13.40;;;;;;;;;;5037942;28;20420;-59
2021/11/11 17:27:30;;;;;;;17.47;14.90;;;;;;;;;;5038479;28;20737;-59
2021/11/11 17:29:56;;;;;;;18.50;15.53;;;;;;;;;;5038104;28;20589;-60
2021/11/11 17:32:22;;;;;;;20.50;15.73;;;;;;;;;;5038632;28;20430;-60
2021/11/11 17:34:47;;;;;;;16.07;14.37;;;;;;;;;;5029644;28;20438;-59
2021/11/11 17:37:13;;;;;;;17.27;13.80;;;;;;;;;;5050977;28;20217;-59
2021/11/11 17:39:38;;;;;;;19.07;13.80;;;;;;;;;;5036718;28;20308;-60
2021/11/11 17:42:06;;;;;;;15.40;12.40;;;;;;;;;;5037221;28;20435;-61
2021/11/11 17:44:34;;;;;;;17.07;13.87;;;;;;;;;;5037618;28;20221;-59
2021/11/11 17:47:03;;;;;;;15.00;13.27;;;;;;;;;;5037030;28;21658;-59
2021/11/11 17:49:38;;;;;;;17.23;12.67;;;;;;;;;;5037727;28;20849;-59
2021/11/11 17:52:10;;;;;;;17.40;13.30;;;;;;;;;;5037559;28;20466;-59
2021/11/11 17:54:36;;;;;;;14.80;11.90;;;;;;;;;;5037255;28;20970;-59
2021/11/11 17:57:03;;;;;;;15.90;13.00;;;;;;;;;;5037278;28;20435;-59
2021/11/11 17:59:33;;;;;;;15.93;12.30;;;;;;;;;;5037762;28;20858;-59